createdAt,value
2023-05-13T00:01:41.897Z,58.07
2023-05-13T00:04:09.152Z,58.96
2023-05-13T00:06:36.367Z,59.08
2023-05-13T00:09:03.514Z,60.30
2023-05-13T00:11:30.622Z,58.35
2023-05-13T00:13:57.838Z,58.52
2023-05-13T00:16:27.845Z,61.03
2023-05-13T00:18:55.523Z,59.11
2023-05-13T00:21:23.600Z,61.40
2023-05-13T00:23:50.686Z,59.59
2023-05-13T00:26:17.758Z,60.37
2023-05-13T00:28:47.619Z,61.23
2023-05-13T00:31:15.137Z,62.23
2023-05-13T00:33:42.173Z,62.61
2023-05-13T00:36:10.284Z,61.30
2023-05-13T00:38:37.930Z,62.75
2023-05-13T00:41:05.309Z,62.53
2023-05-13T00:43:32.274Z,60.82
2023-05-13T00:45:59.433Z,61.05
2023-05-13T00:48:26.691Z,59.76
2023-05-13T00:50:53.698Z,59.94
2023-05-13T00:53:20.756Z,60.10
2023-05-13T00:55:47.831Z,60.62
2023-05-13T00:58:14.993Z,60.32
2023-05-13T01:00:58.335Z,60.56
2023-05-13T01:04:00.695Z,60.73
2023-05-13T01:06:38.855Z,59.46
2023-05-13T01:09:36.329Z,61.00
2023-05-13T01:12:08.075Z,61.87
2023-05-13T01:14:37.530Z,60.74
2023-05-13T01:17:29.281Z,60.25
2023-05-13T01:19:56.540Z,60.33
2023-05-13T01:22:23.543Z,60.56
2023-05-13T01:24:50.853Z,59.17
2023-05-13T01:27:19.217Z,59.79
2023-05-13T01:29:46.315Z,59.07
2023-05-13T01:32:17.772Z,60.11
2023-05-13T01:34:44.801Z,59.02
2023-05-13T01:37:11.946Z,58.83
2023-05-13T01:39:39.556Z,57.56
2023-05-13T01:42:11.903Z,58.82
2023-05-13T01:44:38.832Z,60.21
2023-05-13T01:47:06.232Z,60.56
2023-05-13T01:49:33.222Z,59.88
2023-05-13T01:52:00.228Z,60.67
2023-05-13T01:54:28.739Z,60.17
2023-05-13T01:57:01.059Z,60.33
2023-05-13T01:59:28.092Z,61.64
2023-05-13T02:01:55.075Z,62.54
2023-05-13T02:04:22.200Z,61.61
2023-05-13T02:06:49.485Z,60.93
2023-05-13T02:09:16.745Z,60.50
2023-05-13T02:11:44.980Z,58.44
2023-05-13T02:14:12.085Z,60.43
2023-05-13T02:16:39.246Z,61.99
2023-05-13T02:19:07.031Z,59.92
2023-05-13T02:21:34.157Z,57.77
2023-05-13T02:24:01.811Z,59.75
2023-05-13T02:26:29.421Z,58.73
2023-05-13T02:28:56.429Z,59.05
2023-05-13T02:31:23.801Z,60.85
2023-05-13T02:33:50.794Z,58.55
2023-05-13T02:36:18.138Z,58.21
2023-05-13T02:38:45.625Z,57.42
2023-05-13T02:41:15.229Z,57.14
2023-05-13T02:43:42.609Z,57.35
2023-05-13T02:46:09.767Z,60.92
2023-05-13T02:48:36.848Z,60.08
2023-05-13T02:51:03.902Z,59.04
2023-05-13T02:53:30.929Z,58.30
2023-05-13T02:56:02.739Z,57.80
2023-05-13T02:58:29.787Z,57.78
2023-05-13T03:00:56.831Z,58.34
2023-05-13T03:03:25.161Z,58.42
2023-05-13T03:05:52.317Z,58.42
2023-05-13T03:08:19.317Z,58.70
2023-05-13T03:10:46.359Z,59.67
2023-05-13T03:13:13.467Z,61.82
2023-05-13T03:15:41.516Z,60.56
2023-05-13T03:18:10.727Z,60.04
2023-05-13T03:20:37.728Z,60.74
2023-05-13T03:23:05.026Z,61.17
2023-05-13T03:25:33.067Z,61.02
2023-05-13T03:28:00.143Z,59.69
2023-05-13T03:30:31.218Z,59.59
2023-05-13T03:33:04.302Z,58.74
2023-05-13T03:35:31.546Z,58.55
2023-05-13T03:37:58.491Z,58.55
2023-05-13T03:40:26.291Z,58.66
2023-05-13T03:42:53.233Z,61.85
2023-05-13T03:45:22.695Z,62.07
2023-05-13T03:47:52.634Z,61.16
2023-05-13T03:50:21.476Z,62.25
2023-05-13T03:52:48.631Z,64.32
2023-05-13T03:55:17.132Z,64.90
2023-05-13T03:57:47.572Z,64.78
2023-05-13T04:00:16.269Z,64.33
2023-05-13T04:02:43.379Z,63.23
2023-05-13T04:05:13.914Z,64.74
2023-05-13T04:07:41.546Z,65.01
2023-05-13T04:10:08.929Z,63.64
2023-05-13T04:12:36.085Z,63.98
2023-05-13T04:15:03.433Z,61.97
2023-05-13T04:17:31.088Z,62.38
2023-05-13T04:19:58.072Z,61.01
2023-05-13T04:22:25.106Z,63.76
2023-05-13T04:24:56.506Z,61.63
2023-05-13T04:27:24.293Z,60.13
2023-05-13T04:29:55.613Z,59.86
2023-05-13T04:32:23.140Z,59.98
2023-05-13T04:34:53.430Z,58.47
2023-05-13T04:37:21.241Z,58.43
2023-05-13T04:39:49.629Z,58.99
2023-05-13T04:42:18.813Z,59.07
2023-05-13T04:44:45.830Z,58.12
2023-05-13T04:47:12.892Z,58.88
2023-05-13T04:49:39.954Z,61.39
2023-05-13T04:52:07.196Z,59.72
2023-05-13T04:54:37.798Z,58.96
2023-05-13T04:57:06.146Z,59.39
2023-05-13T04:59:33.245Z,58.71
2023-05-13T05:02:03.460Z,58.64
2023-05-13T05:04:31.027Z,58.56
2023-05-13T05:07:00.684Z,58.49
2023-05-13T05:09:27.820Z,62.09
2023-05-13T05:11:54.971Z,62.53
2023-05-13T05:14:26.514Z,60.97
2023-05-13T05:16:54.339Z,59.03
2023-05-13T05:19:24.559Z,59.77
2023-05-13T05:21:53.420Z,60.02
2023-05-13T05:24:20.519Z,60.52
2023-05-13T05:26:48.466Z,61.87
2023-05-13T05:29:16.424Z,63.50
2023-05-13T05:31:44.488Z,64.97
2023-05-13T05:34:11.977Z,65.91
2023-05-13T05:36:41.772Z,63.91
2023-05-13T05:39:08.902Z,63.24
2023-05-13T05:41:37.198Z,65.41
2023-05-13T05:44:04.510Z,64.29
2023-05-13T05:46:32.674Z,62.55
2023-05-13T05:49:02.588Z,61.14
2023-05-13T05:51:32.108Z,62.88
2023-05-13T05:54:01.681Z,60.97
2023-05-13T05:56:28.737Z,62.57
2023-05-13T05:58:55.803Z,63.51
2023-05-13T06:01:22.941Z,61.40
2023-05-13T06:03:51.476Z,59.88
2023-05-13T06:06:20.160Z,60.93
2023-05-13T06:08:47.394Z,62.71
2023-05-13T06:11:14.622Z,59.61
2023-05-13T06:13:44.109Z,58.99
2023-05-13T06:16:11.196Z,61.30
2023-05-13T06:18:38.406Z,61.70
2023-05-13T06:21:05.564Z,61.77
2023-05-13T06:23:32.519Z,61.65
2023-05-13T06:26:00.179Z,60.13
2023-05-13T06:28:27.271Z,59.06
2023-05-13T06:30:54.612Z,58.16
2023-05-13T06:33:21.718Z,61.07
2023-05-13T06:35:51.104Z,59.52
2023-05-13T06:38:21.166Z,58.87
2023-05-13T06:40:49.735Z,60.04
2023-05-13T06:43:18.209Z,60.12
2023-05-13T06:45:50.056Z,59.79
2023-05-13T06:48:17.137Z,61.15
2023-05-13T06:50:44.372Z,64.05
2023-05-13T06:53:11.910Z,63.07
2023-05-13T06:55:41.909Z,62.47
2023-05-13T06:58:09.360Z,61.03
2023-05-13T07:00:37.732Z,60.82
2023-05-13T07:03:05.777Z,58.73
2023-05-13T07:05:33.539Z,59.12
2023-05-13T07:08:00.649Z,61.67
2023-05-13T07:10:27.701Z,63.05
2023-05-13T07:12:54.715Z,61.14
2023-05-13T07:15:24.388Z,59.53
2023-05-13T07:17:51.442Z,59.78
2023-05-13T07:20:22.629Z,60.13
2023-05-13T07:22:50.005Z,59.70
2023-05-13T07:25:17.700Z,59.98
2023-05-13T07:27:45.002Z,60.18
2023-05-13T07:30:12.690Z,61.97
2023-05-13T07:32:40.078Z,64.15
2023-05-13T07:35:07.581Z,61.97
2023-05-13T07:37:34.632Z,60.88
2023-05-13T07:40:01.627Z,61.70
2023-05-13T07:42:30.078Z,60.47
2023-05-13T07:45:00.206Z,57.78
2023-05-13T07:47:31.497Z,57.25
2023-05-13T07:49:58.557Z,62.68
2023-05-13T07:52:25.927Z,62.04
2023-05-13T07:54:52.877Z,62.74
2023-05-13T07:57:20.244Z,63.25
2023-05-13T07:59:47.944Z,61.30
2023-05-13T08:02:16.735Z,61.55
2023-05-13T08:04:44.053Z,61.16
2023-05-13T08:07:11.880Z,60.77
2023-05-13T08:09:39.718Z,61.99
2023-05-13T08:12:07.093Z,60.99
2023-05-13T08:14:34.260Z,58.04
2023-05-13T08:17:06.440Z,56.37
2023-05-13T08:19:33.844Z,55.29
2023-05-13T08:22:00.994Z,55.28
2023-05-13T08:24:28.181Z,58.37
2023-05-13T08:26:55.260Z,60.72
2023-05-13T08:29:22.308Z,60.35
2023-05-13T08:31:49.726Z,63.14
2023-05-13T08:34:17.153Z,62.23
2023-05-13T08:36:44.334Z,62.32
2023-05-13T08:39:11.448Z,60.83
2023-05-13T08:41:38.421Z,61.12
2023-05-13T08:44:07.033Z,60.58
2023-05-13T08:46:36.983Z,61.49
2023-05-13T08:49:04.134Z,61.24
2023-05-13T08:51:32.129Z,59.14
2023-05-13T08:53:59.224Z,57.97
2023-05-13T08:56:29.150Z,57.21
2023-05-13T08:58:56.812Z,55.32
2023-05-13T09:01:26.506Z,56.92
2023-05-13T09:04:02.646Z,56.01
2023-05-13T09:06:29.759Z,54.72
2023-05-13T09:08:56.762Z,55.12
2023-05-13T09:11:23.837Z,55.55
2023-05-13T09:14:02.773Z,54.71
2023-05-13T09:16:30.065Z,55.24
2023-05-13T09:19:03.915Z,56.88
2023-05-13T09:21:32.083Z,58.16
2023-05-13T09:24:13.505Z,56.21
2023-05-13T09:26:40.971Z,57.14
2023-05-13T09:29:15.116Z,56.81
2023-05-13T09:31:42.993Z,57.68
2023-05-13T09:34:10.038Z,57.69
2023-05-13T09:36:38.251Z,56.10
2023-05-13T09:39:07.606Z,57.55
2023-05-13T09:41:34.649Z,57.83
2023-05-13T09:44:05.272Z,57.97
2023-05-13T09:46:34.808Z,59.10
2023-05-13T09:49:01.932Z,60.14
2023-05-13T09:51:31.832Z,62.10
2023-05-13T09:54:06.515Z,58.40
2023-05-13T09:56:35.428Z,57.71
2023-05-13T09:59:03.049Z,59.28
2023-05-13T10:01:30.493Z,57.86
2023-05-13T10:03:59.624Z,56.10
2023-05-13T10:06:28.347Z,54.34
2023-05-13T10:08:59.342Z,59.09
2023-05-13T10:11:26.337Z,58.91
2023-05-13T10:13:58.952Z,58.81
2023-05-13T10:16:32.072Z,56.80
2023-05-13T10:18:59.523Z,58.74
2023-05-13T10:21:29.887Z,58.54
2023-05-13T10:23:56.949Z,59.91
2023-05-13T10:26:24.220Z,60.50
2023-05-13T10:28:51.232Z,59.53
2023-05-13T10:31:18.303Z,58.09
2023-05-13T10:33:45.371Z,56.40
2023-05-13T10:36:48.133Z,57.08
2023-05-13T10:39:33.189Z,57.78
2023-05-13T10:42:17.951Z,57.24
2023-05-13T10:44:44.995Z,57.26
2023-05-13T10:47:12.157Z,55.91
2023-05-13T10:49:39.741Z,56.84
2023-05-13T10:52:07.542Z,57.25
2023-05-13T10:54:39.229Z,57.55
2023-05-13T10:57:06.710Z,56.71
2023-05-13T10:59:35.868Z,57.09
2023-05-13T11:02:04.044Z,56.70
2023-05-13T11:04:31.312Z,54.37
2023-05-13T11:06:58.955Z,54.67
2023-05-13T11:09:29.666Z,53.94
2023-05-13T11:12:00.519Z,52.68
2023-05-13T11:14:32.648Z,51.55
2023-05-13T11:17:02.415Z,52.06
2023-05-13T11:19:33.642Z,54.05
2023-05-13T11:22:14.606Z,50.67
2023-05-13T11:25:09.811Z,51.01
2023-05-13T11:27:41.520Z,52.20
2023-05-13T11:30:26.453Z,50.25
2023-05-13T11:32:57.433Z,51.47
2023-05-13T11:35:28.095Z,51.88
2023-05-13T11:37:56.978Z,49.66
2023-05-13T11:40:25.929Z,50.03
2023-05-13T11:42:53.311Z,49.25
2023-05-13T11:45:21.556Z,49.10
2023-05-13T11:47:48.806Z,48.91
2023-05-13T11:50:23.176Z,48.32
2023-05-13T11:52:57.360Z,47.83
2023-05-13T11:55:32.058Z,47.85
2023-05-13T11:57:59.304Z,47.46
2023-05-13T12:00:29.565Z,48.46
2023-05-13T12:02:56.997Z,48.38
2023-05-13T12:05:24.694Z,46.92
2023-05-13T12:07:52.288Z,47.16
2023-05-13T12:10:19.482Z,46.40
2023-05-13T12:12:46.560Z,46.78
2023-05-13T12:15:14.614Z,47.59
2023-05-13T12:17:41.639Z,46.55
2023-05-13T12:20:15.286Z,48.11
2023-05-13T12:22:45.338Z,49.96
2023-05-13T12:25:41.639Z,49.98
2023-05-13T12:28:09.580Z,48.84
2023-05-13T12:30:40.817Z,50.55
2023-05-13T12:33:17.356Z,50.20
2023-05-13T12:35:44.936Z,50.98
2023-05-13T12:38:15.372Z,52.54
2023-05-13T12:40:42.401Z,51.36
2023-05-13T12:43:09.324Z,51.12
2023-05-13T12:45:38.008Z,52.23
2023-05-13T12:48:06.550Z,52.41
2023-05-13T12:50:36.046Z,49.91
2023-05-13T12:53:03.172Z,53.64
2023-05-13T12:55:30.320Z,54.56
2023-05-13T12:58:00.203Z,54.33
2023-05-13T13:00:27.379Z,54.43
2023-05-13T13:02:54.464Z,53.08
2023-05-13T13:05:22.131Z,55.75
2023-05-13T13:07:49.552Z,53.90
2023-05-13T13:10:16.644Z,55.33
2023-05-13T13:12:43.756Z,54.25
2023-05-13T13:15:11.194Z,53.29
2023-05-13T13:17:38.348Z,51.48
2023-05-13T13:20:07.571Z,53.33
2023-05-13T13:22:37.249Z,53.08
2023-05-13T13:25:05.889Z,54.23
2023-05-13T13:27:33.312Z,51.70
2023-05-13T13:30:03.288Z,53.28
2023-05-13T13:32:35.582Z,54.26
2023-05-13T13:35:05.991Z,53.91
2023-05-13T13:37:33.104Z,54.21
2023-05-13T13:40:03.471Z,54.65
2023-05-13T13:42:43.266Z,53.63
2023-05-13T13:45:13.035Z,53.21
2023-05-13T13:47:40.501Z,53.89
2023-05-13T13:50:08.024Z,54.94
2023-05-13T13:52:35.016Z,56.93
2023-05-13T13:55:02.438Z,55.71
2023-05-13T13:57:29.908Z,54.75
2023-05-13T13:59:56.938Z,54.81
2023-05-13T14:02:24.307Z,54.13
2023-05-13T14:04:52.245Z,53.07
2023-05-13T14:07:19.413Z,54.53
2023-05-13T14:09:46.452Z,55.66
2023-05-13T14:12:13.422Z,56.39
2023-05-13T14:14:40.466Z,55.58
2023-05-13T14:17:07.455Z,58.22
2023-05-13T14:19:34.661Z,58.38
2023-05-13T14:22:01.659Z,57.86
2023-05-13T14:24:28.749Z,56.69
2023-05-13T14:26:55.871Z,56.92
2023-05-13T14:29:25.921Z,54.50
2023-05-13T14:31:54.267Z,52.80
2023-05-13T14:34:23.614Z,52.47
2023-05-13T14:36:51.422Z,52.95
2023-05-13T14:39:19.279Z,51.92
2023-05-13T14:41:46.396Z,50.50
2023-05-13T14:44:14.743Z,50.22
2023-05-13T14:46:43.478Z,51.57
2023-05-13T14:49:11.255Z,50.70
2023-05-13T14:51:39.818Z,51.55
2023-05-13T14:54:08.860Z,51.01
2023-05-13T14:56:38.892Z,49.93
2023-05-13T14:59:06.933Z,48.79
2023-05-13T15:01:34.542Z,49.75
2023-05-13T15:04:02.842Z,49.01
2023-05-13T15:06:30.179Z,51.78
2023-05-13T15:08:58.378Z,53.02
2023-05-13T15:11:28.438Z,54.49
2023-05-13T15:14:02.640Z,53.11
2023-05-13T15:16:29.886Z,54.12
2023-05-13T15:18:56.971Z,51.82
2023-05-13T15:21:24.018Z,54.20
2023-05-13T15:23:51.095Z,54.68
2023-05-13T15:26:18.534Z,57.28
2023-05-13T15:28:45.605Z,57.93
2023-05-13T15:31:12.677Z,56.57
2023-05-13T15:33:39.805Z,54.66
2023-05-13T15:36:07.380Z,52.42
2023-05-13T15:38:34.393Z,52.64
2023-05-13T15:41:04.283Z,55.28
2023-05-13T15:43:34.372Z,54.56
2023-05-13T15:46:01.636Z,55.95
2023-05-13T15:48:28.998Z,55.89
2023-05-13T15:50:56.381Z,54.68
2023-05-13T15:53:26.029Z,54.27
2023-05-13T15:55:53.034Z,56.95
2023-05-13T15:58:20.021Z,54.88
2023-05-13T16:00:46.997Z,53.04
2023-05-13T16:03:14.105Z,56.59
2023-05-13T16:05:41.487Z,53.10
2023-05-13T16:08:08.461Z,54.48
2023-05-13T16:10:35.914Z,55.47
2023-05-13T16:13:03.019Z,55.35
2023-05-13T16:15:30.167Z,54.89
2023-05-13T16:17:57.398Z,54.30
2023-05-13T16:20:24.749Z,56.61
2023-05-13T16:22:57.355Z,55.84
2023-05-13T16:25:25.075Z,55.66
2023-05-13T16:27:52.145Z,56.29
2023-05-13T16:30:19.129Z,56.76
2023-05-13T16:32:53.257Z,55.18
2023-05-13T16:35:21.090Z,55.71
2023-05-13T16:37:48.429Z,54.08
2023-05-13T16:40:15.613Z,54.22
2023-05-13T16:42:42.769Z,54.38
2023-05-13T16:45:10.100Z,56.39
2023-05-13T16:47:37.155Z,56.97
2023-05-13T16:50:04.553Z,55.75
2023-05-13T16:52:32.661Z,54.74
2023-05-13T16:55:06.278Z,55.55
2023-05-13T16:57:33.282Z,56.44
2023-05-13T17:00:03.430Z,56.18
2023-05-13T17:02:32.354Z,56.27
2023-05-13T17:05:01.833Z,56.20
2023-05-13T17:07:29.125Z,55.27
2023-05-13T17:09:58.506Z,55.68
2023-05-13T17:12:27.381Z,55.88
2023-05-13T17:14:54.442Z,54.40
2023-05-13T17:17:21.456Z,54.63
2023-05-13T17:19:50.734Z,56.46
2023-05-13T17:22:17.731Z,56.33
2023-05-13T17:24:44.761Z,55.42
2023-05-13T17:27:11.764Z,56.35
2023-05-13T17:29:41.132Z,56.63
2023-05-13T17:32:08.222Z,56.40
2023-05-13T17:34:35.304Z,56.89
2023-05-13T17:37:02.331Z,58.51
2023-05-13T17:39:29.395Z,57.25
2023-05-13T17:41:56.678Z,55.90
2023-05-13T17:44:26.768Z,57.58
2023-05-13T17:46:54.612Z,57.39
2023-05-13T17:49:21.718Z,57.88
2023-05-13T17:51:48.820Z,58.19
2023-05-13T17:54:15.881Z,58.61
2023-05-13T17:56:42.946Z,59.09
2023-05-13T17:59:12.490Z,58.35
2023-05-13T18:01:39.500Z,59.05
2023-05-13T18:04:06.578Z,58.61
2023-05-13T18:06:33.632Z,59.52
2023-05-13T18:09:03.012Z,57.48
2023-05-13T18:11:30.146Z,58.77
2023-05-13T18:13:57.257Z,59.14
2023-05-13T18:16:24.430Z,60.17
2023-05-13T18:18:51.615Z,59.36
2023-05-13T18:21:18.593Z,59.53
2023-05-13T18:23:46.644Z,59.39
2023-05-13T18:26:16.254Z,58.74
2023-05-13T18:28:45.082Z,60.13
2023-05-13T18:31:14.779Z,59.83
2023-05-13T18:33:46.849Z,58.60
2023-05-13T18:36:13.969Z,59.45
2023-05-13T18:38:41.010Z,59.15
2023-05-13T18:41:08.379Z,59.87
2023-05-13T18:43:40.493Z,60.06
2023-05-13T18:46:07.496Z,58.60
2023-05-13T18:48:37.582Z,59.78
2023-05-13T18:51:04.583Z,60.52
2023-05-13T18:53:34.123Z,60.04
2023-05-13T18:56:01.211Z,58.83
2023-05-13T18:58:30.759Z,60.27
2023-05-13T19:01:00.335Z,59.83
2023-05-13T19:03:27.565Z,59.38
2023-05-13T19:05:54.803Z,60.82
2023-05-13T19:08:22.655Z,61.11
2023-05-13T19:10:49.843Z,60.41
2023-05-13T19:13:19.828Z,62.99
2023-05-13T19:15:49.581Z,61.72
2023-05-13T19:18:16.681Z,61.82
2023-05-13T19:20:43.781Z,61.73
2023-05-13T19:23:10.987Z,60.18
2023-05-13T19:25:42.165Z,62.12
2023-05-13T19:28:12.744Z,63.04
2023-05-13T19:30:42.405Z,61.50
2023-05-13T19:33:11.890Z,61.67
2023-05-13T19:35:42.041Z,61.68
2023-05-13T19:38:11.996Z,59.43
2023-05-13T19:40:39.067Z,60.17
2023-05-13T19:43:06.675Z,60.84
2023-05-13T19:45:34.532Z,60.90
2023-05-13T19:48:02.643Z,61.60
2023-05-13T19:50:29.698Z,61.02
2023-05-13T19:52:59.619Z,62.53
2023-05-13T19:55:27.171Z,61.67
2023-05-13T19:57:55.074Z,60.18
2023-05-13T20:00:22.713Z,60.65
2023-05-13T20:02:50.167Z,60.24
2023-05-13T20:05:17.328Z,60.27
2023-05-13T20:07:44.544Z,61.10
2023-05-13T20:10:11.597Z,60.26
2023-05-13T20:12:38.688Z,61.41
2023-05-13T20:15:06.760Z,61.90
2023-05-13T20:17:33.922Z,63.47
2023-05-13T20:20:01.616Z,64.59
2023-05-13T20:22:28.813Z,67.88
2023-05-13T20:24:55.950Z,68.77
2023-05-13T20:27:22.995Z,68.49
2023-05-13T20:29:50.137Z,67.55
2023-05-13T20:32:21.210Z,65.18
2023-05-13T20:34:48.309Z,65.55
2023-05-13T20:37:16.939Z,63.99
2023-05-13T20:39:44.034Z,61.67
2023-05-13T20:42:11.256Z,60.41
2023-05-13T20:44:38.286Z,59.49
2023-05-13T20:47:05.390Z,58.43
2023-05-13T20:49:34.114Z,58.00
2023-05-13T20:52:03.699Z,57.71
2023-05-13T20:54:30.886Z,56.28
2023-05-13T20:56:58.335Z,56.47
2023-05-13T20:59:25.529Z,56.81
2023-05-13T21:01:52.550Z,55.80
2023-05-13T21:04:19.641Z,55.22
2023-05-13T21:06:47.636Z,56.69
2023-05-13T21:09:14.771Z,58.71
2023-05-13T21:11:41.765Z,61.25
2023-05-13T21:14:08.744Z,59.52
2023-05-13T21:16:36.176Z,58.41
2023-05-13T21:19:03.225Z,57.89
2023-05-13T21:21:32.300Z,59.45
2023-05-13T21:23:59.592Z,57.91
2023-05-13T21:26:26.612Z,58.75
2023-05-13T21:28:53.618Z,57.25
2023-05-13T21:31:20.617Z,55.26
2023-05-13T21:33:49.060Z,54.68
2023-05-13T21:36:16.187Z,54.72
2023-05-13T21:38:43.186Z,55.16
2023-05-13T21:41:10.172Z,55.70
2023-05-13T21:43:37.115Z,56.31
2023-05-13T21:46:04.192Z,55.90
2023-05-13T21:48:31.170Z,55.74
2023-05-13T21:50:58.259Z,56.16
2023-05-13T21:53:25.545Z,57.62
2023-05-13T21:55:55.718Z,56.69
2023-05-13T21:58:23.471Z,57.11
2023-05-13T22:00:52.709Z,56.58
2023-05-13T22:03:20.918Z,56.09
2023-05-13T22:05:51.309Z,54.22
2023-05-13T22:08:18.359Z,53.98
2023-05-13T22:10:45.499Z,54.16
2023-05-13T22:13:12.511Z,54.69
2023-05-13T22:15:39.569Z,55.63
2023-05-13T22:18:06.925Z,55.64
2023-05-13T22:20:33.973Z,57.23
2023-05-13T22:23:01.929Z,56.57
2023-05-13T22:25:28.940Z,57.33
2023-05-13T22:27:56.009Z,57.12
2023-05-13T22:30:23.237Z,56.43
2023-05-13T22:32:51.232Z,56.47
2023-05-13T22:35:18.277Z,56.67
2023-05-13T22:37:45.284Z,56.59
2023-05-13T22:40:12.735Z,56.90
2023-05-13T22:42:39.825Z,56.85
2023-05-13T22:45:07.224Z,56.22
2023-05-13T22:47:35.967Z,56.82
2023-05-13T22:50:04.307Z,57.87
2023-05-13T22:52:31.306Z,57.20
2023-05-13T22:54:58.297Z,57.90
2023-05-13T22:57:26.683Z,57.20
2023-05-13T22:59:53.889Z,57.54
2023-05-13T23:02:20.968Z,57.54
2023-05-13T23:04:48.006Z,57.22
2023-05-13T23:07:15.049Z,57.46
2023-05-13T23:09:42.018Z,56.91
2023-05-13T23:12:09.068Z,57.61
2023-05-13T23:14:36.062Z,58.13
2023-05-13T23:17:03.028Z,57.98
2023-05-13T23:19:30.032Z,58.66
2023-05-13T23:21:56.983Z,59.27
2023-05-13T23:24:24.020Z,60.12
2023-05-13T23:26:51.066Z,61.28
2023-05-13T23:29:18.052Z,60.22
2023-05-13T23:31:45.033Z,60.12
2023-05-13T23:34:12.134Z,60.24
2023-05-13T23:36:39.274Z,58.98
2023-05-13T23:39:06.439Z,58.32
2023-05-13T23:41:35.339Z,58.59
2023-05-13T23:44:02.322Z,58.05
2023-05-13T23:46:29.273Z,57.29
2023-05-13T23:48:56.260Z,58.01
2023-05-13T23:51:23.339Z,57.94
2023-05-13T23:53:50.430Z,58.16
2023-05-13T23:56:17.729Z,58.14
2023-05-13T23:58:44.697Z,57.63
